sensor_id;sensor_type;location;lat;lon;timestamp;P1;durP1;ratioP1;P2;durP2;ratioP2
36651;SDS011;53334;51.976;20.144;2024-02-23T00:01:58;7.82;;;6.72;;
36651;SDS011;53334;51.976;20.144;2024-02-23T00:04:31;12.32;;;7.53;;
36651;SDS011;53334;51.976;20.144;2024-02-23T00:07:04;12.00;;;6.88;;
36651;SDS011;53334;51.976;20.144;2024-02-23T00:09:38;8.80;;;6.57;;
36651;SDS011;53334;51.976;20.144;2024-02-23T00:12:11;13.13;;;6.75;;
36651;SDS011;53334;51.976;20.144;2024-02-23T00:14:45;10.73;;;7.22;;
36651;SDS011;53334;51.976;20.144;2024-02-23T00:17:19;10.60;;;7.30;;
36651;SDS011;53334;51.976;20.144;2024-02-23T00:19:53;13.38;;;7.30;;
36651;SDS011;53334;51.976;20.144;2024-02-23T00:22:26;9.57;;;6.45;;
36651;SDS011;53334;51.976;20.144;2024-02-23T00:24:59;12.38;;;6.93;;
36651;SDS011;53334;51.976;20.144;2024-02-23T00:27:33;10.43;;;6.10;;
36651;SDS011;53334;51.976;20.144;2024-02-23T00:30:06;14.88;;;7.07;;
36651;SDS011;53334;51.976;20.144;2024-02-23T00:32:41;10.32;;;6.05;;
36651;SDS011;53334;51.976;20.144;2024-02-23T00:35:15;10.23;;;6.88;;
36651;SDS011;53334;51.976;20.144;2024-02-23T00:37:48;9.82;;;6.90;;
36651;SDS011;53334;51.976;20.144;2024-02-23T00:40:21;10.20;;;6.40;;
36651;SDS011;53334;51.976;20.144;2024-02-23T00:42:55;11.80;;;7.13;;
36651;SDS011;53334;51.976;20.144;2024-02-23T00:45:29;9.05;;;6.63;;
36651;SDS011;53334;51.976;20.144;2024-02-23T00:48:03;8.73;;;6.47;;
36651;SDS011;53334;51.976;20.144;2024-02-23T00:50:38;8.35;;;6.93;;
36651;SDS011;53334;51.976;20.144;2024-02-23T00:53:11;9.20;;;6.28;;
36651;SDS011;53334;51.976;20.144;2024-02-23T00:55:44;8.55;;;5.75;;
36651;SDS011;53334;51.976;20.144;2024-02-23T00:58:18;6.55;;;5.55;;
36651;SDS011;53334;51.976;20.144;2024-02-23T01:00:51;7.00;;;6.15;;
36651;SDS011;53334;51.976;20.144;2024-02-23T01:03:25;8.77;;;6.63;;
36651;SDS011;53334;51.976;20.144;2024-02-23T01:05:59;8.30;;;6.32;;
36651;SDS011;53334;51.976;20.144;2024-02-23T01:08:32;10.82;;;7.20;;
36651;SDS011;53334;51.976;20.144;2024-02-23T01:11:06;7.68;;;6.05;;
36651;SDS011;53334;51.976;20.144;2024-02-23T01:13:39;8.57;;;5.85;;
36651;SDS011;53334;51.976;20.144;2024-02-23T01:16:12;7.60;;;6.30;;
36651;SDS011;53334;51.976;20.144;2024-02-23T01:18:47;9.32;;;6.20;;
36651;SDS011;53334;51.976;20.144;2024-02-23T01:21:20;7.78;;;5.55;;
36651;SDS011;53334;51.976;20.144;2024-02-23T01:23:54;8.25;;;6.57;;
36651;SDS011;53334;51.976;20.144;2024-02-23T01:26:28;9.57;;;5.85;;
36651;SDS011;53334;51.976;20.144;2024-02-23T01:29:02;8.55;;;6.35;;
36651;SDS011;53334;51.976;20.144;2024-02-23T01:31:35;6.90;;;6.20;;
36651;SDS011;53334;51.976;20.144;2024-02-23T01:34:10;9.93;;;6.07;;
36651;SDS011;53334;51.976;20.144;2024-02-23T01:36:44;7.93;;;6.40;;
36651;SDS011;53334;51.976;20.144;2024-02-23T01:39:17;7.07;;;6.15;;
36651;SDS011;53334;51.976;20.144;2024-02-23T01:41:50;10.68;;;6.32;;
36651;SDS011;53334;51.976;20.144;2024-02-23T01:44:23;6.38;;;5.72;;
36651;SDS011;53334;51.976;20.144;2024-02-23T01:46:56;6.57;;;5.45;;
36651;SDS011;53334;51.976;20.144;2024-02-23T01:49:32;6.10;;;5.13;;
36651;SDS011;53334;51.976;20.144;2024-02-23T01:52:06;6.95;;;6.03;;
36651;SDS011;53334;51.976;20.144;2024-02-23T01:54:39;7.25;;;5.95;;
36651;SDS011;53334;51.976;20.144;2024-02-23T01:57:12;6.00;;;5.32;;
36651;SDS011;53334;51.976;20.144;2024-02-23T02:00:07;12.55;;;5.95;;
36651;SDS011;53334;51.976;20.144;2024-02-23T02:02:48;7.28;;;6.50;;
36651;SDS011;53334;51.976;20.144;2024-02-23T02:05:24;7.28;;;6.00;;
36651;SDS011;53334;51.976;20.144;2024-02-23T02:07:58;7.32;;;5.60;;
36651;SDS011;53334;51.976;20.144;2024-02-23T02:10:31;7.25;;;5.57;;
36651;SDS011;53334;51.976;20.144;2024-02-23T02:13:05;8.63;;;5.72;;
36651;SDS011;53334;51.976;20.144;2024-02-23T02:15:38;7.63;;;5.75;;
36651;SDS011;53334;51.976;20.144;2024-02-23T02:18:11;6.65;;;5.65;;
36651;SDS011;53334;51.976;20.144;2024-02-23T02:20:50;6.43;;;5.35;;
36651;SDS011;53334;51.976;20.144;2024-02-23T02:23:25;11.23;;;5.70;;
36651;SDS011;53334;51.976;20.144;2024-02-23T02:28:31;6.97;;;5.47;;
36651;SDS011;53334;51.976;20.144;2024-02-23T02:31:06;7.90;;;6.45;;
36651;SDS011;53334;51.976;20.144;2024-02-23T02:33:39;5.40;;;4.90;;
36651;SDS011;53334;51.976;20.144;2024-02-23T02:36:14;6.43;;;5.38;;
36651;SDS011;53334;51.976;20.144;2024-02-23T02:38:48;5.93;;;5.18;;
36651;SDS011;53334;51.976;20.144;2024-02-23T02:41:22;6.90;;;5.07;;
36651;SDS011;53334;51.976;20.144;2024-02-23T02:43:56;8.75;;;5.68;;
36651;SDS011;53334;51.976;20.144;2024-02-23T02:46:30;7.30;;;5.95;;
36651;SDS011;53334;51.976;20.144;2024-02-23T02:49:07;7.45;;;5.20;;
36651;SDS011;53334;51.976;20.144;2024-02-23T02:51:42;7.57;;;6.00;;
36651;SDS011;53334;51.976;20.144;2024-02-23T02:54:16;7.60;;;5.07;;
36651;SDS011;53334;51.976;20.144;2024-02-23T02:56:50;7.10;;;5.72;;
36651;SDS011;53334;51.976;20.144;2024-02-23T02:59:25;6.18;;;5.45;;
36651;SDS011;53334;51.976;20.144;2024-02-23T03:01:59;6.93;;;5.18;;
36651;SDS011;53334;51.976;20.144;2024-02-23T03:04:33;6.32;;;5.07;;
36651;SDS011;53334;51.976;20.144;2024-02-23T03:07:07;4.97;;;4.47;;
36651;SDS011;53334;51.976;20.144;2024-02-23T03:09:40;7.53;;;5.15;;
36651;SDS011;53334;51.976;20.144;2024-02-23T03:12:13;7.95;;;4.72;;
36651;SDS011;53334;51.976;20.144;2024-02-23T03:14:47;6.35;;;5.10;;
36651;SDS011;53334;51.976;20.144;2024-02-23T03:17:20;9.27;;;5.57;;
36651;SDS011;53334;51.976;20.144;2024-02-23T03:19:53;12.65;;;5.47;;
36651;SDS011;53334;51.976;20.144;2024-02-23T03:22:28;18.00;;;5.78;;
36651;SDS011;53334;51.976;20.144;2024-02-23T03:25:01;5.03;;;4.10;;
36651;SDS011;53334;51.976;20.144;2024-02-23T03:27:39;6.45;;;5.25;;
36651;SDS011;53334;51.976;20.144;2024-02-23T03:30:13;6.88;;;5.63;;
36651;SDS011;53334;51.976;20.144;2024-02-23T03:32:47;5.43;;;4.90;;
36651;SDS011;53334;51.976;20.144;2024-02-23T03:35:20;6.10;;;5.20;;
36651;SDS011;53334;51.976;20.144;2024-02-23T03:37:55;7.43;;;4.53;;
36651;SDS011;53334;51.976;20.144;2024-02-23T03:40:28;7.28;;;5.35;;
36651;SDS011;53334;51.976;20.144;2024-02-23T03:43:01;5.95;;;4.70;;
36651;SDS011;53334;51.976;20.144;2024-02-23T03:45:35;5.22;;;4.05;;
36651;SDS011;53334;51.976;20.144;2024-02-23T03:48:08;5.65;;;4.45;;
36651;SDS011;53334;51.976;20.144;2024-02-23T03:50:41;5.80;;;4.22;;
36651;SDS011;53334;51.976;20.144;2024-02-23T03:53:16;5.15;;;4.65;;
36651;SDS011;53334;51.976;20.144;2024-02-23T03:55:49;9.65;;;5.25;;
36651;SDS011;53334;51.976;20.144;2024-02-23T03:58:23;9.02;;;5.35;;
36651;SDS011;53334;51.976;20.144;2024-02-23T04:00:56;4.53;;;3.90;;
36651;SDS011;53334;51.976;20.144;2024-02-23T04:03:29;4.82;;;3.85;;
36651;SDS011;53334;51.976;20.144;2024-02-23T04:06:02;5.20;;;4.28;;
36651;SDS011;53334;51.976;20.144;2024-02-23T04:08:37;6.97;;;4.63;;
36651;SDS011;53334;51.976;20.144;2024-02-23T04:11:12;4.82;;;3.97;;
36651;SDS011;53334;51.976;20.144;2024-02-23T04:13:46;5.32;;;4.55;;
36651;SDS011;53334;51.976;20.144;2024-02-23T04:16:23;5.40;;;4.10;;
36651;SDS011;53334;51.976;20.144;2024-02-23T04:18:56;7.95;;;4.38;;
36651;SDS011;53334;51.976;20.144;2024-02-23T04:21:30;5.32;;;4.30;;
36651;SDS011;53334;51.976;20.144;2024-02-23T04:24:05;4.38;;;3.78;;
36651;SDS011;53334;51.976;20.144;2024-02-23T04:26:40;4.93;;;4.43;;
36651;SDS011;53334;51.976;20.144;2024-02-23T04:29:13;4.85;;;4.15;;
36651;SDS011;53334;51.976;20.144;2024-02-23T04:31:46;4.88;;;4.22;;
36651;SDS011;53334;51.976;20.144;2024-02-23T04:34:19;5.47;;;4.20;;
36651;SDS011;53334;51.976;20.144;2024-02-23T04:36:53;4.95;;;4.15;;
36651;SDS011;53334;51.976;20.144;2024-02-23T04:39:27;5.18;;;4.20;;
36651;SDS011;53334;51.976;20.144;2024-02-23T04:42:00;5.45;;;4.20;;
36651;SDS011;53334;51.976;20.144;2024-02-23T04:44:34;5.18;;;3.80;;
36651;SDS011;53334;51.976;20.144;2024-02-23T04:47:07;4.80;;;3.88;;
36651;SDS011;53334;51.976;20.144;2024-02-23T04:49:40;5.38;;;4.03;;
36651;SDS011;53334;51.976;20.144;2024-02-23T04:52:14;5.45;;;4.15;;
36651;SDS011;53334;51.976;20.144;2024-02-23T04:54:48;4.57;;;3.70;;
36651;SDS011;53334;51.976;20.144;2024-02-23T04:57:22;4.43;;;4.03;;
36651;SDS011;53334;51.976;20.144;2024-02-23T04:59:55;10.15;;;4.50;;
36651;SDS011;53334;51.976;20.144;2024-02-23T05:02:28;4.47;;;4.07;;
36651;SDS011;53334;51.976;20.144;2024-02-23T05:05:07;4.20;;;3.80;;
36651;SDS011;53334;51.976;20.144;2024-02-23T05:07:40;4.60;;;3.75;;
36651;SDS011;53334;51.976;20.144;2024-02-23T05:10:15;4.93;;;3.63;;
36651;SDS011;53334;51.976;20.144;2024-02-23T05:12:48;4.93;;;4.07;;
36651;SDS011;53334;51.976;20.144;2024-02-23T05:15:22;8.00;;;3.78;;
36651;SDS011;53334;51.976;20.144;2024-02-23T05:17:55;4.50;;;3.88;;
36651;SDS011;53334;51.976;20.144;2024-02-23T05:20:28;5.43;;;4.10;;
36651;SDS011;53334;51.976;20.144;2024-02-23T05:23:01;5.55;;;3.47;;
36651;SDS011;53334;51.976;20.144;2024-02-23T05:25:36;5.68;;;4.35;;
36651;SDS011;53334;51.976;20.144;2024-02-23T05:28:10;4.13;;;3.63;;
36651;SDS011;53334;51.976;20.144;2024-02-23T05:30:43;4.72;;;3.70;;
36651;SDS011;53334;51.976;20.144;2024-02-23T05:33:16;4.88;;;4.03;;
36651;SDS011;53334;51.976;20.144;2024-02-23T05:35:52;8.30;;;4.25;;
36651;SDS011;53334;51.976;20.144;2024-02-23T05:38:25;5.05;;;3.85;;
36651;SDS011;53334;51.976;20.144;2024-02-23T05:41:00;5.13;;;3.50;;
36651;SDS011;53334;51.976;20.144;2024-02-23T05:43:33;5.63;;;3.95;;
36651;SDS011;53334;51.976;20.144;2024-02-23T05:46:07;5.50;;;3.90;;
36651;SDS011;53334;51.976;20.144;2024-02-23T05:48:40;4.25;;;3.70;;
36651;SDS011;53334;51.976;20.144;2024-02-23T05:51:14;7.10;;;3.83;;
36651;SDS011;53334;51.976;20.144;2024-02-23T05:53:47;7.20;;;3.42;;
36651;SDS011;53334;51.976;20.144;2024-02-23T05:56:21;6.45;;;4.45;;
36651;SDS011;53334;51.976;20.144;2024-02-23T05:58:56;6.88;;;3.65;;
36651;SDS011;53334;51.976;20.144;2024-02-23T06:01:29;5.55;;;3.75;;
36651;SDS011;53334;51.976;20.144;2024-02-23T06:04:02;9.43;;;4.32;;
36651;SDS011;53334;51.976;20.144;2024-02-23T06:06:37;4.20;;;3.25;;
36651;SDS011;53334;51.976;20.144;2024-02-23T06:09:13;5.97;;;3.65;;
36651;SDS011;53334;51.976;20.144;2024-02-23T06:11:48;5.78;;;4.03;;
36651;SDS011;53334;51.976;20.144;2024-02-23T06:14:21;7.45;;;3.97;;
36651;SDS011;53334;51.976;20.144;2024-02-23T06:16:55;5.78;;;3.53;;
36651;SDS011;53334;51.976;20.144;2024-02-23T06:19:28;4.03;;;3.17;;
36651;SDS011;53334;51.976;20.144;2024-02-23T06:22:02;5.15;;;3.70;;
36651;SDS011;53334;51.976;20.144;2024-02-23T06:24:35;6.43;;;3.95;;
36651;SDS011;53334;51.976;20.144;2024-02-23T06:27:10;6.93;;;3.53;;
36651;SDS011;53334;51.976;20.144;2024-02-23T06:29:43;7.25;;;3.42;;
36651;SDS011;53334;51.976;20.144;2024-02-23T06:32:16;5.30;;;3.63;;
36651;SDS011;53334;51.976;20.144;2024-02-23T06:34:50;5.05;;;3.78;;
36651;SDS011;53334;51.976;20.144;2024-02-23T06:37:23;10.85;;;4.13;;
36651;SDS011;53334;51.976;20.144;2024-02-23T06:39:56;5.78;;;3.17;;
36651;SDS011;53334;51.976;20.144;2024-02-23T06:42:31;9.13;;;4.35;;
36651;SDS011;53334;51.976;20.144;2024-02-23T06:45:04;10.57;;;4.35;;
36651;SDS011;53334;51.976;20.144;2024-02-23T06:47:39;17.48;;;4.03;;
36651;SDS011;53334;51.976;20.144;2024-02-23T06:50:14;21.60;;;4.50;;
36651;SDS011;53334;51.976;20.144;2024-02-23T06:52:47;9.85;;;4.88;;
36651;SDS011;53334;51.976;20.144;2024-02-23T06:55:21;9.35;;;5.10;;
36651;SDS011;53334;51.976;20.144;2024-02-23T06:57:55;7.55;;;4.78;;
36651;SDS011;53334;51.976;20.144;2024-02-23T07:00:29;9.80;;;5.18;;
36651;SDS011;53334;51.976;20.144;2024-02-23T07:03:02;13.43;;;6.10;;
36651;SDS011;53334;51.976;20.144;2024-02-23T07:08:09;11.77;;;4.82;;
36651;SDS011;53334;51.976;20.144;2024-02-23T07:10:42;15.20;;;5.05;;
36651;SDS011;53334;51.976;20.144;2024-02-23T07:13:18;8.48;;;5.30;;
36651;SDS011;53334;51.976;20.144;2024-02-23T07:15:51;11.05;;;5.05;;
36651;SDS011;53334;51.976;20.144;2024-02-23T07:18:25;11.95;;;4.75;;
36651;SDS011;53334;51.976;20.144;2024-02-23T07:20:58;13.18;;;4.60;;
36651;SDS011;53334;51.976;20.144;2024-02-23T07:23:33;13.63;;;4.70;;
36651;SDS011;53334;51.976;20.144;2024-02-23T07:26:06;9.15;;;4.38;;
36651;SDS011;53334;51.976;20.144;2024-02-23T07:28:41;11.50;;;5.30;;
36651;SDS011;53334;51.976;20.144;2024-02-23T07:31:14;14.57;;;5.70;;
36651;SDS011;53334;51.976;20.144;2024-02-23T07:33:48;12.75;;;5.75;;
36651;SDS011;53334;51.976;20.144;2024-02-23T07:36:22;9.82;;;5.13;;
36651;SDS011;53334;51.976;20.144;2024-02-23T07:38:55;12.73;;;4.70;;
36651;SDS011;53334;51.976;20.144;2024-02-23T07:41:29;8.10;;;4.70;;
36651;SDS011;53334;51.976;20.144;2024-02-23T07:44:03;23.25;;;5.68;;
36651;SDS011;53334;51.976;20.144;2024-02-23T07:46:37;9.52;;;5.60;;
36651;SDS011;53334;51.976;20.144;2024-02-23T07:49:10;11.00;;;5.60;;
36651;SDS011;53334;51.976;20.144;2024-02-23T07:51:43;13.88;;;5.82;;
36651;SDS011;53334;51.976;20.144;2024-02-23T07:54:17;12.25;;;5.18;;
36651;SDS011;53334;51.976;20.144;2024-02-23T07:56:50;11.82;;;5.28;;
36651;SDS011;53334;51.976;20.144;2024-02-23T07:59:24;8.05;;;4.78;;
36651;SDS011;53334;51.976;20.144;2024-02-23T08:01:59;10.95;;;5.43;;
36651;SDS011;53334;51.976;20.144;2024-02-23T08:04:33;10.32;;;5.80;;
36651;SDS011;53334;51.976;20.144;2024-02-23T08:07:06;11.52;;;5.35;;
36651;SDS011;53334;51.976;20.144;2024-02-23T08:09:41;7.35;;;5.30;;
36651;SDS011;53334;51.976;20.144;2024-02-23T08:12:15;8.82;;;5.55;;
36651;SDS011;53334;51.976;20.144;2024-02-23T08:14:51;8.60;;;6.10;;
36651;SDS011;53334;51.976;20.144;2024-02-23T08:17:25;6.35;;;5.07;;
36651;SDS011;53334;51.976;20.144;2024-02-23T08:19:58;9.43;;;4.93;;
36651;SDS011;53334;51.976;20.144;2024-02-23T08:22:32;7.13;;;5.25;;
36651;SDS011;53334;51.976;20.144;2024-02-23T08:25:05;5.78;;;4.68;;
36651;SDS011;53334;51.976;20.144;2024-02-23T08:27:40;6.30;;;4.65;;
36651;SDS011;53334;51.976;20.144;2024-02-23T08:30:16;7.95;;;4.20;;
36651;SDS011;53334;51.976;20.144;2024-02-23T08:32:51;8.02;;;4.97;;
36651;SDS011;53334;51.976;20.144;2024-02-23T08:35:25;8.82;;;4.38;;
36651;SDS011;53334;51.976;20.144;2024-02-23T08:40:32;7.95;;;5.20;;
36651;SDS011;53334;51.976;20.144;2024-02-23T08:43:07;8.63;;;5.10;;
36651;SDS011;53334;51.976;20.144;2024-02-23T08:45:42;7.90;;;4.93;;
36651;SDS011;53334;51.976;20.144;2024-02-23T08:48:15;6.32;;;4.97;;
36651;SDS011;53334;51.976;20.144;2024-02-23T08:50:49;8.50;;;4.68;;
36651;SDS011;53334;51.976;20.144;2024-02-23T08:53:22;7.45;;;5.80;;
36651;SDS011;53334;51.976;20.144;2024-02-23T08:55:56;8.35;;;5.00;;
36651;SDS011;53334;51.976;20.144;2024-02-23T08:58:29;5.90;;;4.88;;
36651;SDS011;53334;51.976;20.144;2024-02-23T09:01:04;6.28;;;4.70;;
36651;SDS011;53334;51.976;20.144;2024-02-23T09:03:38;7.28;;;4.90;;
36651;SDS011;53334;51.976;20.144;2024-02-23T09:06:11;6.78;;;4.45;;
36651;SDS011;53334;51.976;20.144;2024-02-23T09:08:45;7.22;;;4.90;;
36651;SDS011;53334;51.976;20.144;2024-02-23T09:11:18;6.65;;;4.35;;
36651;SDS011;53334;51.976;20.144;2024-02-23T09:13:51;5.93;;;3.70;;
36651;SDS011;53334;51.976;20.144;2024-02-23T09:16:26;6.55;;;4.13;;
36651;SDS011;53334;51.976;20.144;2024-02-23T09:18:59;5.22;;;4.38;;
36651;SDS011;53334;51.976;20.144;2024-02-23T09:21:33;5.90;;;4.55;;
36651;SDS011;53334;51.976;20.144;2024-02-23T09:24:06;6.40;;;4.45;;
36651;SDS011;53334;51.976;20.144;2024-02-23T09:26:40;6.47;;;4.35;;
36651;SDS011;53334;51.976;20.144;2024-02-23T09:31:48;5.10;;;3.90;;
36651;SDS011;53334;51.976;20.144;2024-02-23T09:34:22;8.65;;;4.13;;
36651;SDS011;53334;51.976;20.144;2024-02-23T09:36:55;5.88;;;4.50;;
36651;SDS011;53334;51.976;20.144;2024-02-23T09:39:28;4.60;;;3.72;;
36651;SDS011;53334;51.976;20.144;2024-02-23T09:44:39;5.80;;;4.70;;
36651;SDS011;53334;51.976;20.144;2024-02-23T09:47:18;7.05;;;4.78;;
36651;SDS011;53334;51.976;20.144;2024-02-23T09:49:51;6.22;;;4.43;;
36651;SDS011;53334;51.976;20.144;2024-02-23T09:52:26;9.82;;;4.63;;
36651;SDS011;53334;51.976;20.144;2024-02-23T09:55:01;5.95;;;4.28;;
36651;SDS011;53334;51.976;20.144;2024-02-23T09:57:35;6.18;;;4.15;;
36651;SDS011;53334;51.976;20.144;2024-02-23T10:00:10;9.07;;;5.57;;
36651;SDS011;53334;51.976;20.144;2024-02-23T10:02:45;8.90;;;4.90;;
36651;SDS011;53334;51.976;20.144;2024-02-23T10:05:18;11.18;;;4.38;;
36651;SDS011;53334;51.976;20.144;2024-02-23T10:07:52;8.25;;;4.85;;
36651;SDS011;53334;51.976;20.144;2024-02-23T10:13:03;5.30;;;4.10;;
36651;SDS011;53334;51.976;20.144;2024-02-23T10:15:37;9.13;;;4.07;;
36651;SDS011;53334;51.976;20.144;2024-02-23T10:18:27;4.50;;;3.78;;
36651;SDS011;53334;51.976;20.144;2024-02-23T10:21:00;9.88;;;4.20;;
36651;SDS011;53334;51.976;20.144;2024-02-23T10:23:33;7.50;;;4.38;;
36651;SDS011;53334;51.976;20.144;2024-02-23T10:26:09;17.85;;;4.30;;
36651;SDS011;53334;51.976;20.144;2024-02-23T10:28:42;11.35;;;4.10;;
36651;SDS011;53334;51.976;20.144;2024-02-23T10:31:15;4.80;;;3.83;;
36651;SDS011;53334;51.976;20.144;2024-02-23T10:33:51;8.18;;;4.65;;
36651;SDS011;53334;51.976;20.144;2024-02-23T10:36:25;6.80;;;4.47;;
36651;SDS011;53334;51.976;20.144;2024-02-23T10:39:02;5.32;;;3.63;;
36651;SDS011;53334;51.976;20.144;2024-02-23T10:41:39;5.40;;;4.10;;
36651;SDS011;53334;51.976;20.144;2024-02-23T10:44:17;9.60;;;4.68;;
36651;SDS011;53334;51.976;20.144;2024-02-23T10:46:54;7.25;;;4.65;;
36651;SDS011;53334;51.976;20.144;2024-02-23T10:49:29;5.88;;;3.58;;
36651;SDS011;53334;51.976;20.144;2024-02-23T10:52:04;8.52;;;4.75;;
36651;SDS011;53334;51.976;20.144;2024-02-23T10:54:38;4.75;;;3.83;;
36651;SDS011;53334;51.976;20.144;2024-02-23T10:57:13;5.85;;;4.15;;
36651;SDS011;53334;51.976;20.144;2024-02-23T10:59:50;6.25;;;4.10;;
36651;SDS011;53334;51.976;20.144;2024-02-23T11:02:23;6.28;;;3.90;;
36651;SDS011;53334;51.976;20.144;2024-02-23T11:05:04;4.75;;;3.58;;
36651;SDS011;53334;51.976;20.144;2024-02-23T11:07:41;8.90;;;4.15;;
36651;SDS011;53334;51.976;20.144;2024-02-23T11:10:14;6.82;;;4.22;;
36651;SDS011;53334;51.976;20.144;2024-02-23T11:15:30;5.68;;;4.18;;
36651;SDS011;53334;51.976;20.144;2024-02-23T11:18:20;7.55;;;4.00;;
36651;SDS011;53334;51.976;20.144;2024-02-23T11:20:58;5.65;;;4.10;;
36651;SDS011;53334;51.976;20.144;2024-02-23T11:23:39;7.20;;;3.58;;
36651;SDS011;53334;51.976;20.144;2024-02-23T11:26:16;6.30;;;3.92;;
36651;SDS011;53334;51.976;20.144;2024-02-23T11:31:29;8.88;;;4.05;;
36651;SDS011;53334;51.976;20.144;2024-02-23T11:34:07;5.32;;;4.00;;
36651;SDS011;53334;51.976;20.144;2024-02-23T11:36:42;5.78;;;4.03;;
36651;SDS011;53334;51.976;20.144;2024-02-23T11:39:15;5.80;;;3.90;;
36651;SDS011;53334;51.976;20.144;2024-02-23T11:41:50;5.78;;;4.10;;
36651;SDS011;53334;51.976;20.144;2024-02-23T11:44:23;10.60;;;3.85;;
36651;SDS011;53334;51.976;20.144;2024-02-23T11:46:57;4.07;;;3.58;;
36651;SDS011;53334;51.976;20.144;2024-02-23T11:49:31;5.20;;;3.60;;
36651;SDS011;53334;51.976;20.144;2024-02-23T11:52:06;8.07;;;4.07;;
36651;SDS011;53334;51.976;20.144;2024-02-23T11:54:39;5.55;;;3.90;;
36651;SDS011;53334;51.976;20.144;2024-02-23T11:57:13;6.35;;;3.97;;
36651;SDS011;53334;51.976;20.144;2024-02-23T11:59:46;9.30;;;5.20;;
36651;SDS011;53334;51.976;20.144;2024-02-23T12:02:20;5.20;;;4.40;;
36651;SDS011;53334;51.976;20.144;2024-02-23T12:07:28;5.18;;;3.67;;
36651;SDS011;53334;51.976;20.144;2024-02-23T12:10:02;5.28;;;4.05;;
36651;SDS011;53334;51.976;20.144;2024-02-23T12:12:37;5.63;;;3.97;;
36651;SDS011;53334;51.976;20.144;2024-02-23T12:15:11;10.40;;;4.55;;
36651;SDS011;53334;51.976;20.144;2024-02-23T12:17:47;4.00;;;3.60;;
36651;SDS011;53334;51.976;20.144;2024-02-23T12:20:23;4.80;;;3.80;;
36651;SDS011;53334;51.976;20.144;2024-02-23T12:22:58;7.15;;;3.20;;
36651;SDS011;53334;51.976;20.144;2024-02-23T12:25:33;6.68;;;4.38;;
36651;SDS011;53334;51.976;20.144;2024-02-23T12:28:08;8.13;;;4.13;;
36651;SDS011;53334;51.976;20.144;2024-02-23T12:30:41;7.03;;;3.67;;
36651;SDS011;53334;51.976;20.144;2024-02-23T12:33:15;10.15;;;4.45;;
36651;SDS011;53334;51.976;20.144;2024-02-23T12:35:48;9.93;;;4.07;;
36651;SDS011;53334;51.976;20.144;2024-02-23T12:38:23;8.32;;;3.72;;
36651;SDS011;53334;51.976;20.144;2024-02-23T12:40:57;7.30;;;3.83;;
36651;SDS011;53334;51.976;20.144;2024-02-23T12:43:30;5.57;;;3.95;;
36651;SDS011;53334;51.976;20.144;2024-02-23T12:46:03;6.45;;;3.97;;
36651;SDS011;53334;51.976;20.144;2024-02-23T12:48:38;10.40;;;4.15;;
36651;SDS011;53334;51.976;20.144;2024-02-23T12:51:11;4.30;;;3.63;;
36651;SDS011;53334;51.976;20.144;2024-02-23T12:53:46;7.28;;;3.92;;
36651;SDS011;53334;51.976;20.144;2024-02-23T12:56:19;7.95;;;3.95;;
36651;SDS011;53334;51.976;20.144;2024-02-23T12:58:55;9.50;;;4.03;;
36651;SDS011;53334;51.976;20.144;2024-02-23T13:01:29;7.07;;;3.90;;
36651;SDS011;53334;51.976;20.144;2024-02-23T13:04:03;11.32;;;4.20;;
36651;SDS011;53334;51.976;20.144;2024-02-23T13:06:41;4.43;;;3.85;;
36651;SDS011;53334;51.976;20.144;2024-02-23T13:09:16;5.60;;;3.70;;
36651;SDS011;53334;51.976;20.144;2024-02-23T13:11:49;9.38;;;3.90;;
36651;SDS011;53334;51.976;20.144;2024-02-23T13:14:22;7.50;;;4.00;;
36651;SDS011;53334;51.976;20.144;2024-02-23T13:16:56;7.30;;;3.97;;
36651;SDS011;53334;51.976;20.144;2024-02-23T13:19:29;4.90;;;3.70;;
36651;SDS011;53334;51.976;20.144;2024-02-23T13:22:02;18.02;;;4.10;;
36651;SDS011;53334;51.976;20.144;2024-02-23T13:24:37;8.25;;;4.35;;
36651;SDS011;53334;51.976;20.144;2024-02-23T13:27:11;9.65;;;3.38;;
36651;SDS011;53334;51.976;20.144;2024-02-23T13:29:44;4.68;;;4.10;;
36651;SDS011;53334;51.976;20.144;2024-02-23T13:32:18;6.78;;;3.72;;
36651;SDS011;53334;51.976;20.144;2024-02-23T13:34:51;7.43;;;4.45;;
36651;SDS011;53334;51.976;20.144;2024-02-23T13:37:24;6.03;;;4.32;;
36651;SDS011;53334;51.976;20.144;2024-02-23T13:45:06;10.20;;;4.38;;
36651;SDS011;53334;51.976;20.144;2024-02-23T13:47:40;11.38;;;5.00;;
36651;SDS011;53334;51.976;20.144;2024-02-23T13:50:16;11.75;;;5.13;;
36651;SDS011;53334;51.976;20.144;2024-02-23T13:52:49;11.32;;;4.78;;
36651;SDS011;53334;51.976;20.144;2024-02-23T13:55:24;13.07;;;5.45;;
36651;SDS011;53334;51.976;20.144;2024-02-23T13:57:57;12.88;;;5.00;;
36651;SDS011;53334;51.976;20.144;2024-02-23T14:00:30;8.05;;;5.03;;
36651;SDS011;53334;51.976;20.144;2024-02-23T14:03:04;11.88;;;4.85;;
36651;SDS011;53334;51.976;20.144;2024-02-23T14:05:37;8.45;;;5.15;;
36651;SDS011;53334;51.976;20.144;2024-02-23T14:08:12;15.02;;;6.25;;
36651;SDS011;53334;51.976;20.144;2024-02-23T14:10:47;8.95;;;5.05;;
36651;SDS011;53334;51.976;20.144;2024-02-23T14:13:21;10.15;;;5.18;;
36651;SDS011;53334;51.976;20.144;2024-02-23T14:18:27;12.77;;;5.25;;
36651;SDS011;53334;51.976;20.144;2024-02-23T14:21:01;7.35;;;5.32;;
36651;SDS011;53334;51.976;20.144;2024-02-23T14:26:09;13.57;;;5.70;;
36651;SDS011;53334;51.976;20.144;2024-02-23T14:28:44;13.13;;;5.22;;
36651;SDS011;53334;51.976;20.144;2024-02-23T14:31:17;10.77;;;4.78;;
36651;SDS011;53334;51.976;20.144;2024-02-23T14:33:50;9.40;;;5.60;;
36651;SDS011;53334;51.976;20.144;2024-02-23T14:36:24;11.60;;;5.28;;
36651;SDS011;53334;51.976;20.144;2024-02-23T14:38:58;17.45;;;5.63;;
36651;SDS011;53334;51.976;20.144;2024-02-23T14:41:32;10.43;;;4.95;;
36651;SDS011;53334;51.976;20.144;2024-02-23T14:44:06;8.55;;;4.97;;
36651;SDS011;53334;51.976;20.144;2024-02-23T14:46:39;13.90;;;5.93;;
36651;SDS011;53334;51.976;20.144;2024-02-23T14:49:14;11.30;;;5.88;;
36651;SDS011;53334;51.976;20.144;2024-02-23T14:51:47;11.70;;;5.28;;
36651;SDS011;53334;51.976;20.144;2024-02-23T14:54:21;14.10;;;5.65;;
36651;SDS011;53334;51.976;20.144;2024-02-23T14:56:55;10.57;;;6.40;;
36651;SDS011;53334;51.976;20.144;2024-02-23T14:59:29;11.75;;;6.28;;
36651;SDS011;53334;51.976;20.144;2024-02-23T15:02:02;16.38;;;6.90;;
36651;SDS011;53334;51.976;20.144;2024-02-23T15:04:37;8.98;;;6.30;;
36651;SDS011;53334;51.976;20.144;2024-02-23T15:07:11;13.45;;;6.22;;
36651;SDS011;53334;51.976;20.144;2024-02-23T15:09:44;12.10;;;6.38;;
36651;SDS011;53334;51.976;20.144;2024-02-23T15:12:18;14.82;;;6.65;;
36651;SDS011;53334;51.976;20.144;2024-02-23T15:14:53;17.00;;;10.13;;
36651;SDS011;53334;51.976;20.144;2024-02-23T15:17:27;44.95;;;16.42;;
36651;SDS011;53334;51.976;20.144;2024-02-23T15:20:00;58.15;;;21.70;;
36651;SDS011;53334;51.976;20.144;2024-02-23T15:22:34;62.55;;;21.08;;
36651;SDS011;53334;51.976;20.144;2024-02-23T15:25:13;58.85;;;21.48;;
36651;SDS011;53334;51.976;20.144;2024-02-23T15:27:48;54.72;;;20.70;;
36651;SDS011;53334;51.976;20.144;2024-02-23T15:30:24;70.20;;;22.17;;
36651;SDS011;53334;51.976;20.144;2024-02-23T15:35:31;48.03;;;20.30;;
36651;SDS011;53334;51.976;20.144;2024-02-23T15:38:06;52.08;;;19.15;;
36651;SDS011;53334;51.976;20.144;2024-02-23T15:40:39;51.63;;;20.38;;
36651;SDS011;53334;51.976;20.144;2024-02-23T15:43:13;49.88;;;20.75;;
36651;SDS011;53334;51.976;20.144;2024-02-23T15:45:47;49.70;;;20.92;;
36651;SDS011;53334;51.976;20.144;2024-02-23T15:48:21;52.05;;;20.02;;